createdAt,value
2022-11-24T00:01:15.663Z,8.30
2022-11-24T00:03:43.923Z,8.30
2022-11-24T00:06:13.262Z,8.30
2022-11-24T00:08:41.719Z,8.40
2022-11-24T00:11:11.015Z,8.40
2022-11-24T00:13:41.222Z,8.40
2022-11-24T00:16:16.863Z,8.40
2022-11-24T00:18:45.429Z,8.40
2022-11-24T00:21:18.687Z,8.40
2022-11-24T00:23:45.860Z,8.40
2022-11-24T00:26:27.368Z,8.30
2022-11-24T00:28:55.773Z,8.30
2022-11-24T00:31:35.799Z,8.30
2022-11-24T00:34:05.847Z,8.30
2022-11-24T00:36:33.384Z,8.30
2022-11-24T00:39:02.192Z,8.30
2022-11-24T00:41:29.519Z,8.30
2022-11-24T00:43:56.939Z,8.30
2022-11-24T00:46:24.281Z,8.30
2022-11-24T00:48:51.386Z,8.20
2022-11-24T00:51:21.692Z,8.20
2022-11-24T00:53:48.424Z,8.20
2022-11-24T00:56:15.088Z,8.10
2022-11-24T00:58:42.087Z,8.20
2022-11-24T01:01:18.376Z,8.20
2022-11-24T01:03:46.718Z,8.20
2022-11-24T01:06:22.966Z,8.20
2022-11-24T01:08:50.122Z,8.30
2022-11-24T01:11:22.841Z,8.30
2022-11-24T01:13:52.642Z,8.40
2022-11-24T01:16:23.449Z,8.30
2022-11-24T01:18:50.565Z,8.40
2022-11-24T01:24:15.315Z,8.30
2022-11-24T01:26:42.340Z,8.30
2022-11-24T01:29:11.699Z,8.20
2022-11-24T01:31:38.704Z,8.20
2022-11-24T01:34:05.300Z,8.20
2022-11-24T01:36:31.914Z,8.20
2022-11-24T01:38:58.509Z,8.20
2022-11-24T01:41:28.112Z,8.20
2022-11-24T01:43:55.367Z,8.10
2022-11-24T01:46:30.963Z,8.10
2022-11-24T01:49:44.585Z,8.00
2022-11-24T01:52:19.392Z,8.00
2022-11-24T01:54:53.263Z,8.00
2022-11-24T01:57:24.330Z,8.00
2022-11-24T01:59:55.899Z,7.90
2022-11-24T02:02:23.355Z,7.90
2022-11-24T02:04:51.386Z,7.90
2022-11-24T02:07:18.518Z,7.90
2022-11-24T02:09:52.834Z,7.80
2022-11-24T02:12:19.759Z,7.80
2022-11-24T02:14:46.494Z,7.70
2022-11-24T02:17:13.163Z,7.70
2022-11-24T02:19:39.739Z,7.70
2022-11-24T02:22:22.087Z,7.70
2022-11-24T02:25:27.527Z,7.60
2022-11-24T02:27:55.649Z,7.60
2022-11-24T02:30:22.678Z,7.70
2022-11-24T02:32:49.801Z,7.70
2022-11-24T02:35:17.083Z,7.70
2022-11-24T02:37:43.779Z,7.80
2022-11-24T02:40:10.799Z,7.80
2022-11-24T02:42:42.926Z,7.80
2022-11-24T02:45:11.611Z,7.80
2022-11-24T02:47:38.160Z,7.80
2022-11-24T02:50:05.151Z,7.80
2022-11-24T02:52:31.828Z,7.80
2022-11-24T02:54:58.384Z,7.80
2022-11-24T02:57:24.937Z,7.80
2022-11-24T02:59:51.588Z,7.80
2022-11-24T03:02:18.250Z,7.80
2022-11-24T03:04:44.882Z,7.80
2022-11-24T03:07:11.524Z,7.80
2022-11-24T03:09:38.112Z,7.80
2022-11-24T03:12:04.788Z,7.80
2022-11-24T03:14:31.677Z,7.90
2022-11-24T03:16:58.516Z,7.90
2022-11-24T03:19:25.128Z,7.90
2022-11-24T03:21:51.708Z,7.80
2022-11-24T03:24:18.343Z,7.90
2022-11-24T03:26:44.973Z,7.90
2022-11-24T03:29:11.574Z,7.80
2022-11-24T03:31:38.297Z,7.80
2022-11-24T03:34:05.024Z,7.70
2022-11-24T03:36:31.635Z,7.70
2022-11-24T03:38:58.307Z,7.70
2022-11-24T03:41:24.896Z,7.70
2022-11-24T03:43:51.716Z,7.70
2022-11-24T03:46:18.433Z,7.70
2022-11-24T03:48:45.117Z,7.80
2022-11-24T03:51:12.090Z,7.90
2022-11-24T03:53:38.834Z,8.00
2022-11-24T03:56:05.722Z,8.00
2022-11-24T03:58:32.564Z,8.10
2022-11-24T04:00:59.465Z,8.20
2022-11-24T04:03:26.599Z,8.30
2022-11-24T04:05:53.285Z,8.30
2022-11-24T04:08:20.084Z,8.40
2022-11-24T04:10:53.415Z,8.40
2022-11-24T04:13:23.187Z,8.50
2022-11-24T04:15:50.050Z,8.50
2022-11-24T04:18:16.876Z,8.40
2022-11-24T04:20:43.973Z,8.40
2022-11-24T04:23:11.004Z,8.40
2022-11-24T04:25:38.077Z,8.40
2022-11-24T04:28:04.823Z,8.50
2022-11-24T04:30:31.663Z,8.50
2022-11-24T04:32:58.913Z,8.50
2022-11-24T04:35:25.592Z,8.50
2022-11-24T04:37:52.357Z,8.50
2022-11-24T04:40:19.484Z,8.60
2022-11-24T04:42:53.922Z,8.60
2022-11-24T04:45:20.708Z,8.60
2022-11-24T04:47:47.278Z,8.70
2022-11-24T04:50:13.952Z,8.70
2022-11-24T04:52:40.559Z,8.70
2022-11-24T04:55:08.083Z,8.70
2022-11-24T04:57:34.659Z,8.80
2022-11-24T05:00:01.271Z,8.80
2022-11-24T05:02:27.871Z,8.80
2022-11-24T05:04:54.400Z,8.80
2022-11-24T05:07:20.999Z,8.80
2022-11-24T05:10:06.569Z,8.80
2022-11-24T05:12:33.557Z,8.80
2022-11-24T05:15:01.523Z,8.80
2022-11-24T05:17:34.841Z,8.80
2022-11-24T05:20:01.467Z,8.80
2022-11-24T05:22:31.661Z,8.80
2022-11-24T05:24:58.396Z,8.90
2022-11-24T05:27:25.155Z,8.90
2022-11-24T05:29:51.716Z,9.00
2022-11-24T05:32:18.434Z,9.00
2022-11-24T05:34:47.931Z,9.00
2022-11-24T05:37:14.615Z,9.00
2022-11-24T05:39:41.205Z,9.00
2022-11-24T05:42:26.866Z,9.10
2022-11-24T05:44:53.658Z,9.00
2022-11-24T05:47:20.946Z,9.00
2022-11-24T05:49:47.831Z,9.10
2022-11-24T05:52:15.119Z,9.10
2022-11-24T05:54:41.996Z,9.10
2022-11-24T05:57:08.872Z,9.00
2022-11-24T05:59:35.613Z,9.00
2022-11-24T06:02:02.928Z,8.80
2022-11-24T06:04:29.733Z,8.70
2022-11-24T06:06:56.293Z,8.60
2022-11-24T06:09:22.909Z,8.50
2022-11-24T06:11:49.542Z,8.50
2022-11-24T06:14:16.263Z,8.50
2022-11-24T06:16:42.923Z,8.40
2022-11-24T06:19:10.928Z,8.40
2022-11-24T06:21:37.821Z,8.40
2022-11-24T06:24:05.330Z,8.40
2022-11-24T06:26:31.921Z,8.30
2022-11-24T06:28:58.489Z,8.40
2022-11-24T06:31:25.220Z,8.30
2022-11-24T06:33:52.052Z,8.30
2022-11-24T06:36:18.737Z,8.30
2022-11-24T06:38:45.372Z,8.30
2022-11-24T06:41:14.682Z,8.30
2022-11-24T06:43:41.427Z,8.20
2022-11-24T06:46:08.266Z,8.20
2022-11-24T06:48:38.066Z,8.10
2022-11-24T06:51:09.028Z,8.10
2022-11-24T06:53:38.366Z,8.00
2022-11-24T06:56:15.255Z,8.00
2022-11-24T06:58:45.988Z,8.00
2022-11-24T07:01:17.460Z,8.00
2022-11-24T07:03:44.718Z,8.00
2022-11-24T07:06:11.344Z,8.10
2022-11-24T07:08:38.191Z,8.10
2022-11-24T07:11:09.421Z,8.20
2022-11-24T07:13:36.321Z,8.10
2022-11-24T07:16:16.464Z,8.20
2022-11-24T07:18:44.418Z,8.20
2022-11-24T07:21:11.528Z,8.20
2022-11-24T07:23:38.847Z,8.10
2022-11-24T07:26:07.372Z,8.10
2022-11-24T07:28:35.020Z,8.10
2022-11-24T07:31:07.191Z,8.00
2022-11-24T07:33:34.287Z,8.00
2022-11-24T07:36:01.431Z,8.00
2022-11-24T07:38:29.744Z,8.00
2022-11-24T07:41:01.112Z,8.00
2022-11-24T07:43:28.853Z,7.90
2022-11-24T07:45:55.574Z,7.80
2022-11-24T07:48:23.160Z,7.80
2022-11-24T07:50:55.470Z,7.90
2022-11-24T07:53:22.580Z,7.90
2022-11-24T07:56:05.724Z,8.00
2022-11-24T07:58:34.945Z,8.00
2022-11-24T08:01:18.452Z,8.00
2022-11-24T08:03:46.283Z,8.10
2022-11-24T08:06:24.446Z,8.10
2022-11-24T08:08:53.304Z,8.10
2022-11-24T08:11:20.173Z,8.10
2022-11-24T08:13:46.991Z,8.10
2022-11-24T08:16:16.344Z,8.20
2022-11-24T08:18:44.250Z,8.30
2022-11-24T08:21:14.552Z,8.30
2022-11-24T08:23:41.978Z,8.40
2022-11-24T08:26:15.784Z,8.40
2022-11-24T08:28:42.651Z,8.70
2022-11-24T08:31:11.687Z,9.30
2022-11-24T08:33:38.464Z,9.50
2022-11-24T08:36:11.212Z,9.30
2022-11-24T08:38:38.501Z,9.60
2022-11-24T08:41:08.803Z,10.40
2022-11-24T08:43:35.778Z,11.30
2022-11-24T08:46:10.982Z,11.60
2022-11-24T08:48:38.043Z,12.00
2022-11-24T08:51:16.017Z,12.20
2022-11-24T08:53:43.743Z,12.90
2022-11-24T08:56:11.933Z,13.00
2022-11-24T08:58:39.534Z,13.80
2022-11-24T09:01:13.450Z,14.50
2022-11-24T09:03:44.964Z,14.50
2022-11-24T09:06:22.799Z,14.10
2022-11-24T09:08:49.915Z,14.20
2022-11-24T09:11:17.167Z,14.70
2022-11-24T09:13:44.770Z,14.30
2022-11-24T09:16:18.341Z,12.40
2022-11-24T09:18:45.237Z,11.80
2022-11-24T09:21:16.405Z,11.10
2022-11-24T09:23:44.027Z,10.70
2022-11-24T09:26:31.407Z,10.60
2022-11-24T09:28:59.772Z,10.50
2022-11-24T09:31:29.050Z,10.60
2022-11-24T09:33:56.223Z,10.60
2022-11-24T09:36:24.082Z,10.60
2022-11-24T09:38:50.956Z,10.60
2022-11-24T09:41:17.534Z,10.60
2022-11-24T09:44:00.664Z,10.70
2022-11-24T09:46:47.023Z,10.70
2022-11-24T09:49:24.137Z,11.20
2022-11-24T09:51:54.913Z,11.20
2022-11-24T09:54:28.623Z,11.10
2022-11-24T09:57:00.386Z,11.10
2022-11-24T09:59:28.437Z,10.90
2022-11-24T10:01:56.529Z,10.90
2022-11-24T10:04:28.186Z,10.70
2022-11-24T10:07:03.198Z,10.80
2022-11-24T10:10:07.410Z,11.10
2022-11-24T10:13:04.916Z,11.00
2022-11-24T10:15:47.001Z,11.40
2022-11-24T10:18:22.449Z,12.20
2022-11-24T10:21:24.685Z,12.90
2022-11-24T10:24:32.648Z,13.70
2022-11-24T10:27:18.928Z,15.00
2022-11-24T10:29:51.097Z,14.30
2022-11-24T10:32:29.681Z,13.60
2022-11-24T10:35:02.723Z,14.10
2022-11-24T10:37:48.862Z,15.00
2022-11-24T10:40:56.384Z,14.80
2022-11-24T10:43:25.868Z,13.50
2022-11-24T10:45:52.597Z,13.60
2022-11-24T10:48:28.174Z,13.60
2022-11-24T10:51:08.152Z,13.60
2022-11-24T10:53:36.952Z,14.10
2022-11-24T10:56:05.668Z,14.50
2022-11-24T10:58:37.774Z,13.10
2022-11-24T11:01:14.611Z,12.50
2022-11-24T11:03:53.670Z,12.40
2022-11-24T11:06:28.735Z,13.20
2022-11-24T11:09:20.523Z,13.50
2022-11-24T11:11:48.803Z,13.50
2022-11-24T11:14:33.859Z,13.90
2022-11-24T11:17:00.818Z,14.10
2022-11-24T11:19:50.942Z,14.80
2022-11-24T11:22:36.534Z,15.00
2022-11-24T11:25:12.294Z,15.10
2022-11-24T11:27:40.665Z,13.60
2022-11-24T11:36:13.109Z,14.70
2022-11-24T11:38:41.460Z,14.60
2022-11-24T11:41:19.205Z,14.30
2022-11-24T11:43:50.432Z,14.20
2022-11-24T11:46:17.387Z,14.00
2022-11-24T11:48:46.657Z,13.80
2022-11-24T11:51:35.994Z,13.90
2022-11-24T11:54:18.133Z,14.20
2022-11-24T11:56:47.523Z,14.90
2022-11-24T11:59:14.054Z,14.80
2022-11-24T12:01:52.676Z,14.90
2022-11-24T12:04:48.515Z,14.60
2022-11-24T12:07:43.321Z,14.60
2022-11-24T12:10:24.522Z,15.20
2022-11-24T12:13:14.437Z,15.00
2022-11-24T12:15:54.101Z,14.80
2022-11-24T12:19:02.555Z,14.70
2022-11-24T12:21:52.016Z,14.50
2022-11-24T12:24:27.437Z,14.30
2022-11-24T12:27:23.328Z,14.60
2022-11-24T12:30:11.719Z,15.00
2022-11-24T12:33:13.747Z,14.80
2022-11-24T12:35:44.988Z,14.50
2022-11-24T12:38:14.141Z,15.20
2022-11-24T12:44:03.052Z,14.60
2022-11-24T12:46:54.265Z,14.80
2022-11-24T12:49:27.218Z,15.10
2022-11-24T12:52:05.575Z,15.40
2022-11-24T12:54:39.989Z,15.10
2022-11-24T12:57:23.851Z,14.40
2022-11-24T13:00:09.606Z,15.00
2022-11-24T13:02:51.382Z,15.30
2022-11-24T13:05:47.352Z,15.60
2022-11-24T13:08:14.869Z,14.90
2022-11-24T13:10:58.007Z,14.90
2022-11-24T13:13:48.054Z,15.10
2022-11-24T13:19:18.012Z,15.40
2022-11-24T13:21:49.964Z,15.10
2022-11-24T13:24:16.842Z,15.30
2022-11-24T13:26:48.331Z,14.90
2022-11-24T13:29:41.755Z,15.00
2022-11-24T13:32:08.428Z,14.90
2022-11-24T13:34:43.724Z,14.80
2022-11-24T13:37:31.244Z,15.10
2022-11-24T13:40:25.819Z,15.40
2022-11-24T13:42:58.679Z,15.90
2022-11-24T13:45:41.116Z,16.50
2022-11-24T13:48:20.385Z,16.40
2022-11-24T13:50:50.517Z,16.30
2022-11-24T13:53:37.055Z,16.20
2022-11-24T13:56:25.379Z,16.00
2022-11-24T13:59:01.271Z,16.30
2022-11-24T14:01:28.945Z,16.70
2022-11-24T14:04:33.226Z,16.40
2022-11-24T14:07:11.152Z,15.90
2022-11-24T14:09:45.222Z,15.30
2022-11-24T14:12:23.357Z,15.50
2022-11-24T14:14:52.335Z,15.50
2022-11-24T14:17:23.364Z,15.10
2022-11-24T14:19:52.686Z,14.80
2022-11-24T14:22:31.608Z,14.60
2022-11-24T14:25:00.834Z,14.50
2022-11-24T14:27:38.435Z,14.20
2022-11-24T14:30:08.541Z,13.90
2022-11-24T14:32:35.390Z,13.90
2022-11-24T14:35:02.059Z,14.00
2022-11-24T14:37:28.686Z,13.80
2022-11-24T14:39:55.308Z,13.50
2022-11-24T14:42:27.469Z,13.20
2022-11-24T14:44:56.348Z,13.10
2022-11-24T14:47:36.316Z,13.20
2022-11-24T14:50:19.572Z,13.30
2022-11-24T14:52:54.270Z,13.30
2022-11-24T14:55:32.359Z,13.20
2022-11-24T14:57:59.987Z,13.10
2022-11-24T15:00:33.414Z,13.00
2022-11-24T15:03:05.716Z,12.70
2022-11-24T15:06:00.875Z,12.30
2022-11-24T15:08:34.004Z,12.00
2022-11-24T15:11:02.704Z,11.80
2022-11-24T15:13:33.503Z,11.60
2022-11-24T15:16:03.876Z,11.40
2022-11-24T15:18:42.240Z,11.30
2022-11-24T15:21:12.951Z,11.20
2022-11-24T15:23:43.013Z,11.10
2022-11-24T15:26:12.787Z,11.00
2022-11-24T15:28:40.039Z,10.90
2022-11-24T15:31:10.554Z,10.80
2022-11-24T15:33:37.763Z,10.70
2022-11-24T15:36:04.613Z,10.70
2022-11-24T15:38:31.296Z,10.60
2022-11-24T15:41:01.774Z,10.60
2022-11-24T15:43:34.265Z,10.50
2022-11-24T15:46:02.893Z,10.50
2022-11-24T15:48:29.969Z,10.50
2022-11-24T15:50:58.206Z,10.40
2022-11-24T15:53:32.676Z,10.40
2022-11-24T15:56:01.302Z,10.30
2022-11-24T15:58:28.032Z,10.30
2022-11-24T16:00:54.715Z,10.30
2022-11-24T16:03:46.204Z,10.20
2022-11-24T16:06:23.723Z,10.20
2022-11-24T16:08:51.931Z,10.10
2022-11-24T16:11:18.624Z,10.00
2022-11-24T16:13:51.581Z,10.00
2022-11-24T16:16:19.830Z,9.90
2022-11-24T16:18:46.575Z,9.80
2022-11-24T16:21:13.339Z,9.70
2022-11-24T16:23:40.223Z,9.70
2022-11-24T16:26:07.181Z,9.60
2022-11-24T16:28:33.935Z,9.60
2022-11-24T16:31:00.674Z,9.60
2022-11-24T16:33:29.306Z,9.50
2022-11-24T16:35:55.971Z,9.50
2022-11-24T16:38:22.611Z,9.40
2022-11-24T16:40:53.928Z,9.40
2022-11-24T16:43:20.765Z,9.40
2022-11-24T16:46:13.682Z,9.30
2022-11-24T16:48:40.262Z,9.30
2022-11-24T16:51:08.303Z,9.30
2022-11-24T16:53:34.995Z,9.20
2022-11-24T16:56:02.014Z,9.20
2022-11-24T16:58:28.881Z,9.20
2022-11-24T17:00:55.612Z,9.20
2022-11-24T17:03:22.187Z,9.10
2022-11-24T17:06:00.413Z,9.20
2022-11-24T17:08:29.924Z,9.10
2022-11-24T17:10:56.533Z,9.10
2022-11-24T17:13:24.175Z,9.10
2022-11-24T17:15:54.178Z,9.10
2022-11-24T17:18:25.404Z,9.00
2022-11-24T17:20:52.579Z,9.00
2022-11-24T17:23:19.653Z,9.00
2022-11-24T17:25:48.285Z,8.90
2022-11-24T17:28:14.932Z,8.90
2022-11-24T17:30:41.712Z,8.80
2022-11-24T17:33:08.329Z,8.80
2022-11-24T17:35:35.272Z,8.70
2022-11-24T17:38:01.875Z,8.60
2022-11-24T17:40:29.551Z,8.60
2022-11-24T17:43:00.346Z,8.50
2022-11-24T17:45:28.288Z,8.50
2022-11-24T17:47:56.049Z,8.40
2022-11-24T17:50:25.981Z,8.40
2022-11-24T17:52:53.695Z,8.40
2022-11-24T17:55:20.432Z,8.40
2022-11-24T17:57:47.000Z,8.40
2022-11-24T18:00:14.279Z,8.30
2022-11-24T18:02:40.888Z,8.30
2022-11-24T18:05:08.009Z,8.30
2022-11-24T18:07:37.653Z,8.30
2022-11-24T18:10:04.808Z,8.30
2022-11-24T18:12:32.474Z,8.30
2022-11-24T18:14:59.216Z,8.20
2022-11-24T18:17:25.886Z,8.20
2022-11-24T18:19:52.502Z,8.20
2022-11-24T18:22:27.068Z,8.20
2022-11-24T18:25:08.594Z,8.20
2022-11-24T18:27:35.329Z,8.30
2022-11-24T18:30:04.468Z,8.30
2022-11-24T18:32:32.207Z,8.30
2022-11-24T18:34:58.826Z,8.30
2022-11-24T18:37:25.577Z,8.20
2022-11-24T18:39:52.152Z,8.20
2022-11-24T18:42:20.720Z,8.10
2022-11-24T18:44:51.134Z,8.10
2022-11-24T18:47:20.640Z,8.00
2022-11-24T18:49:47.212Z,8.00
2022-11-24T18:52:13.888Z,8.00
2022-11-24T18:54:40.601Z,7.90
2022-11-24T18:57:07.256Z,7.90
2022-11-24T18:59:33.940Z,7.90
2022-11-24T19:02:00.651Z,7.90
2022-11-24T19:04:27.366Z,7.80
2022-11-24T19:06:53.929Z,7.80
2022-11-24T19:09:22.512Z,7.80
2022-11-24T19:11:49.058Z,7.90
2022-11-24T19:14:18.268Z,7.90
2022-11-24T19:16:47.785Z,7.90
2022-11-24T19:19:15.082Z,7.90
2022-11-24T19:21:44.595Z,7.90
2022-11-24T19:24:11.405Z,7.70
2022-11-24T19:26:38.813Z,7.70
2022-11-24T19:29:06.914Z,7.60
2022-11-24T19:31:34.588Z,7.60
2022-11-24T19:34:03.057Z,7.50
2022-11-24T19:36:29.959Z,7.50
2022-11-24T19:38:57.802Z,7.40
2022-11-24T19:41:27.718Z,7.40
2022-11-24T19:43:54.733Z,7.40
2022-11-24T19:46:22.860Z,7.30
2022-11-24T19:48:53.987Z,7.30
2022-11-24T19:51:26.695Z,7.40
2022-11-24T19:53:53.782Z,7.40
2022-11-24T19:56:22.753Z,7.40
2022-11-24T19:58:50.230Z,7.50
2022-11-24T20:01:19.901Z,7.50
2022-11-24T20:03:49.430Z,7.50
2022-11-24T20:06:16.398Z,7.50
2022-11-24T20:08:43.473Z,7.50
2022-11-24T20:11:12.723Z,7.40
2022-11-24T20:13:41.448Z,7.50
2022-11-24T20:16:11.188Z,7.50
2022-11-24T20:18:42.132Z,7.40
2022-11-24T20:21:10.988Z,7.50
2022-11-24T20:23:38.241Z,7.40
2022-11-24T20:26:15.623Z,7.40
2022-11-24T20:28:42.610Z,7.40
2022-11-24T20:31:12.351Z,7.50
2022-11-24T20:33:39.290Z,7.50
2022-11-24T20:36:09.021Z,7.50
2022-11-24T20:38:36.664Z,7.50
2022-11-24T20:41:09.562Z,7.50
2022-11-24T20:43:37.557Z,7.40
2022-11-24T20:46:25.385Z,7.50
2022-11-24T20:48:53.141Z,7.40
2022-11-24T20:51:28.685Z,7.40
2022-11-24T20:53:58.117Z,7.40
2022-11-24T20:56:29.982Z,7.40
2022-11-24T20:58:57.200Z,7.20
2022-11-24T21:01:29.810Z,7.20
2022-11-24T21:03:58.651Z,7.30
2022-11-24T21:06:26.474Z,7.30
2022-11-24T21:08:56.842Z,7.30
2022-11-24T21:11:27.851Z,7.30
2022-11-24T21:13:54.562Z,7.20
2022-11-24T21:16:32.390Z,7.20
2022-11-24T21:19:03.741Z,7.20
2022-11-24T21:21:35.165Z,7.20
2022-11-24T21:24:03.259Z,7.20
2022-11-24T21:26:29.858Z,7.20
2022-11-24T21:28:57.325Z,7.20
2022-11-24T21:31:24.350Z,7.20
2022-11-24T21:33:52.740Z,7.20
2022-11-24T21:36:25.576Z,7.20
2022-11-24T21:38:54.266Z,7.10
2022-11-24T21:41:21.730Z,7.10
2022-11-24T21:43:49.915Z,7.10
2022-11-24T21:46:16.960Z,7.10
2022-11-24T21:48:43.935Z,7.10
2022-11-24T21:51:15.607Z,7.10
2022-11-24T21:53:43.082Z,7.00
2022-11-24T21:56:18.580Z,7.00
2022-11-24T21:58:50.159Z,7.00
2022-11-24T22:01:19.208Z,7.00
2022-11-24T22:03:46.202Z,7.00
2022-11-24T22:06:13.376Z,7.00
2022-11-24T22:08:40.216Z,6.90
2022-11-24T22:11:18.907Z,6.90
2022-11-24T22:13:46.221Z,6.90
2022-11-24T22:16:15.777Z,7.00
2022-11-24T22:18:44.202Z,7.00
2022-11-24T22:21:18.908Z,7.00
2022-11-24T22:23:46.278Z,7.00
2022-11-24T22:26:18.596Z,7.00
2022-11-24T22:28:45.575Z,6.90
2022-11-24T22:31:17.136Z,7.00
2022-11-24T22:33:44.402Z,6.90
2022-11-24T22:36:12.813Z,6.90
2022-11-24T22:38:39.729Z,6.80
2022-11-24T22:41:09.276Z,6.60
2022-11-24T22:43:37.551Z,6.50
2022-11-24T22:46:17.592Z,6.50
2022-11-24T22:48:45.157Z,6.50
2022-11-24T22:51:17.566Z,6.50
2022-11-24T22:53:48.681Z,6.50
2022-11-24T22:56:15.622Z,6.50
2022-11-24T22:58:43.156Z,6.60
2022-11-24T23:01:18.912Z,6.60
2022-11-24T23:03:46.058Z,6.60
2022-11-24T23:06:18.508Z,6.70
2022-11-24T23:08:45.250Z,6.70
2022-11-24T23:11:14.995Z,6.80
2022-11-24T23:13:42.048Z,6.80
2022-11-24T23:16:15.059Z,6.80
2022-11-24T23:18:42.682Z,6.80
2022-11-24T23:21:13.011Z,6.80
2022-11-24T23:23:40.307Z,6.80
2022-11-24T23:26:09.416Z,6.80
2022-11-24T23:28:36.479Z,6.80
2022-11-24T23:31:08.898Z,6.90
2022-11-24T23:33:36.361Z,6.90
2022-11-24T23:36:05.952Z,6.90
2022-11-24T23:38:32.864Z,6.90
2022-11-24T23:41:01.358Z,6.90
2022-11-24T23:43:28.076Z,6.90
2022-11-24T23:45:54.700Z,6.90
2022-11-24T23:48:21.382Z,6.90
2022-11-24T23:50:47.988Z,7.00
2022-11-24T23:53:14.677Z,7.00
2022-11-24T23:55:41.325Z,7.00
2022-11-24T23:58:07.956Z,7.00
